Time;durP1;ratioP1;P1;durP2;ratioP2;P2;SDS_P1;SDS_P2;PMS_P1;PMS_P2;Temp;Humidity;BMP_temperature;BMP_pressure;BME280_temperature;BME280_humidity;BME280_pressure;Samples;Min_cycle;Max_cycle;Signal;HPM_P1;HPM_P2
2023/09/12 00:02:16;;;;;;;0.22;0.22;;;29.00;52.20;;;29.70;38.28;94723.72;5076579;28;20311;-20
2023/09/12 00:04:43;;;;;;;0.20;0.20;;;29.00;52.20;;;29.69;37.99;94730.22;5077423;28;20187;-20
2023/09/12 00:07:10;;;;;;;0.30;0.30;;;29.00;52.20;;;29.67;38.04;94729.75;5077649;28;20206;-20
2023/09/12 00:09:38;;;;;;;0.20;0.20;;;29.00;52.20;;;29.69;38.10;94727.53;5077417;28;20243;-20
2023/09/12 00:12:05;;;;;;;0.28;0.28;;;29.00;52.20;;;29.66;38.20;94722.78;5076569;28;20246;-21
2023/09/12 00:14:32;;;;;;;0.20;0.20;;;29.00;52.20;;;29.66;37.58;94722.78;5077493;28;20181;-20
2023/09/12 00:17:00;;;;;;;0.30;0.30;;;29.00;52.10;;;29.68;38.05;94725.16;5077317;28;20193;-20
2023/09/12 00:19:27;;;;;;;0.20;0.20;;;29.00;53.50;;;29.66;37.70;94730.06;5077117;28;20194;-20
2023/09/12 00:21:55;;;;;;;0.20;0.20;;;29.00;52.20;;;29.64;37.54;94724.22;5076793;28;20630;-20
2023/09/12 00:24:22;;;;;;;0.30;0.30;;;29.00;52.20;;;29.63;37.77;94726.09;5076963;28;20670;-20
2023/09/12 00:26:49;;;;;;;0.20;0.20;;;29.00;52.30;;;29.61;38.13;94722.91;5077489;28;20203;-21
2023/09/12 00:29:16;;;;;;;0.30;0.30;;;29.00;52.20;;;29.61;37.89;94728.31;5076874;28;20244;-20
2023/09/12 00:31:44;;;;;;;0.30;0.30;;;29.00;52.30;;;29.58;37.70;94720.84;5076472;28;20219;-20
2023/09/12 00:34:18;;;;;;;0.20;0.20;;;29.00;52.30;;;29.58;38.29;94728.16;5075558;28;20229;-20
2023/09/12 00:36:45;;;;;;;0.28;0.28;;;29.00;52.30;;;29.55;38.30;94722.28;5075686;28;20185;-20
2023/09/12 00:39:13;;;;;;;0.20;0.20;;;28.90;52.10;;;29.57;37.82;94721.19;5076431;28;20267;-20
2023/09/12 00:41:40;;;;;;;0.22;0.22;;;28.90;52.20;;;29.55;38.34;94722.28;5076455;28;20194;-20
2023/09/12 00:44:07;;;;;;;0.30;0.30;;;28.90;52.20;;;29.52;37.90;94725.63;5076351;28;20524;-19
2023/09/12 00:46:34;;;;;;;0.30;0.30;;;28.90;52.20;;;29.52;38.37;94722.91;5076408;28;20242;-20
2023/09/12 00:49:04;;;;;;;0.30;0.30;;;28.90;52.20;;;29.50;37.75;94719.75;5076485;28;20196;-20
2023/09/12 00:51:33;;;;;;;0.30;0.30;;;28.90;52.30;;;29.51;38.49;94725.94;5075262;28;20634;-20
2023/09/12 00:54:01;;;;;;;0.20;0.20;;;28.90;52.20;;;29.49;37.95;94728.97;5076356;28;20210;-20
2023/09/12 00:56:28;;;;;;;0.20;0.20;;;28.90;52.20;;;29.50;37.75;94722.47;5075182;28;20202;-20
2023/09/12 00:58:56;;;;;;;0.30;0.30;;;28.90;52.30;;;29.50;38.11;94719.75;5075274;28;20202;-20
2023/09/12 01:01:24;;;;;;;0.20;0.20;;;28.90;52.20;;;29.51;38.32;94724.03;5075968;28;20572;-20
2023/09/12 01:03:51;;;;;;;0.30;0.30;;;28.90;52.20;;;29.50;38.25;94718.94;5076126;28;20546;-20
2023/09/12 01:06:26;;;;;;;0.30;0.30;;;28.80;52.10;;;29.50;37.77;94718.94;5075735;28;20193;-21
2023/09/12 01:08:53;;;;;;;0.30;0.30;;;28.90;52.10;;;29.50;38.07;94716.25;5076168;28;20182;-20
2023/09/12 01:11:21;;;;;;;0.30;0.30;;;28.80;52.10;;;29.47;38.01;94714.19;5074948;28;20233;-21
2023/09/12 01:13:48;;;;;;;0.30;0.30;;;28.80;52.00;;;29.44;38.00;94714.81;5074885;28;20602;-23
2023/09/12 01:16:15;;;;;;;0.30;0.30;;;28.80;52.10;;;29.42;37.99;94720.53;5075876;28;20244;-21
2023/09/12 01:18:43;;;;;;;0.28;0.28;;;28.70;52.10;;;29.39;37.94;94718.44;5076287;28;20185;-20
2023/09/12 01:21:40;;;;;;;0.40;0.40;;;28.70;52.20;;;29.37;38.09;94715.28;5075849;28;20607;-21
2023/09/12 01:24:57;;;;;;;0.20;0.20;;;28.70;52.10;;;29.33;37.93;94712.44;5074879;28;20193;-20
2023/09/12 01:27:55;;;;;;;0.20;0.20;;;28.70;52.10;;;29.28;37.70;94712.53;5074985;28;20191;-20
2023/09/12 01:30:24;;;;;;;0.30;0.30;;;28.70;52.40;;;29.25;37.84;94715.88;5076048;28;20561;-21
2023/09/12 01:32:52;;;;;;;0.30;0.30;;;28.60;52.40;;;29.25;38.36;94718.59;5074676;28;20226;-20
2023/09/12 01:35:19;;;;;;;0.38;0.38;;;28.60;52.30;;;29.23;38.02;94713.50;5074433;28;20201;-23
2023/09/12 01:37:46;;;;;;;0.25;0.25;;;28.60;52.40;;;29.23;38.43;94710.81;5075766;28;20680;-21
2023/09/12 01:40:15;;;;;;;0.20;0.20;;;28.60;52.50;;;29.24;37.91;94719.69;5075565;28;20268;-21
2023/09/12 01:42:45;;;;;;;0.25;0.25;;;28.60;52.40;;;29.22;37.91;94714.59;5074296;28;20206;-20
2023/09/12 01:45:17;;;;;;;0.30;0.30;;;28.60;52.50;;;29.22;38.63;94713.78;5057799;28;20199;-20
2023/09/12 01:47:51;;;;;;;0.30;0.30;;;28.50;52.60;;;29.20;38.53;94716.81;5058627;28;20231;-20
2023/09/12 01:50:20;;;;;;;0.30;0.30;;;28.60;52.60;;;29.17;38.45;94713.94;5075267;28;20190;-20
2023/09/12 01:52:48;;;;;;;0.25;0.25;;;28.60;52.70;;;29.18;38.15;94713.63;5057613;28;20289;-21
2023/09/12 01:55:17;;;;;;;0.30;0.30;;;28.60;52.60;;;29.18;38.21;94719.03;5074522;28;20274;-20
2023/09/12 01:57:45;;;;;;;0.30;0.30;;;28.50;52.60;;;29.17;38.17;94722.84;5074659;28;20488;-20
2023/09/12 02:00:13;;;;;;;0.30;0.30;;;28.60;52.70;;;29.17;38.14;94717.44;5090888;28;20255;-21
2023/09/12 02:02:40;;;;;;;0.28;0.28;;;28.60;52.70;;;29.15;38.01;94722.38;5090952;28;20205;-21
2023/09/12 02:05:12;;;;;;;0.20;0.20;;;28.60;52.70;;;29.15;38.45;94722.38;5074056;28;20224;-21
2023/09/12 02:07:41;;;;;;;0.30;0.30;;;28.60;52.70;;;29.17;38.17;94722.06;5074034;28;20238;-20
2023/09/12 02:10:09;;;;;;;0.30;0.30;;;28.60;52.70;;;29.13;38.23;94721.91;5075155;28;20201;-21
2023/09/12 02:12:38;;;;;;;0.20;0.20;;;28.60;52.70;;;29.13;38.84;94726.50;5090552;28;20263;-21
2023/09/12 02:15:07;;;;;;;0.30;0.30;;;28.60;52.80;;;29.13;38.66;94726.50;5073921;28;20212;-20
2023/09/12 02:17:34;;;;;;;0.25;0.25;;;28.50;52.70;;;29.08;38.90;94725.53;5074242;28;20213;-20
2023/09/12 02:20:05;;;;;;;0.20;0.20;;;28.50;52.70;;;29.08;38.75;94730.16;5075371;28;20191;-20
2023/09/12 02:22:32;;;;;;;0.30;0.30;;;28.50;52.70;;;29.08;38.39;94736.34;5074140;28;20292;-20
2023/09/12 02:24:59;;;;;;;0.30;0.30;;;28.50;52.70;;;29.05;38.44;94728.88;5073998;28;20212;-20
2023/09/12 02:27:26;;;;;;;0.30;0.30;;;28.50;52.70;;;29.04;38.87;94729.97;5090479;28;20266;-21
2023/09/12 02:29:55;;;;;;;0.20;0.20;;;28.50;52.70;;;29.04;38.32;94727.28;5075021;28;20206;-20
2023/09/12 02:32:22;;;;;;;0.32;0.32;;;28.50;52.70;;;29.05;38.47;94736.97;5073864;28;20219;-19
2023/09/12 02:34:49;;;;;;;0.30;0.30;;;28.50;52.70;;;29.06;38.27;94735.06;5090700;28;20228;-20
2023/09/12 02:37:16;;;;;;;0.20;0.20;;;28.50;52.70;;;29.05;38.38;94728.06;5094555;28;20229;-19
2023/09/12 02:39:43;;;;;;;0.30;0.30;;;28.50;52.70;;;29.05;38.86;94731.56;5078970;28;20521;-20
2023/09/12 02:42:11;;;;;;;0.30;0.30;;;28.50;52.80;;;29.03;38.54;94733.78;5077951;28;20202;-22
2023/09/12 02:44:38;;;;;;;0.20;0.20;;;28.50;52.80;;;29.02;38.46;94732.19;5078610;28;20543;-21
2023/09/12 02:47:05;;;;;;;0.20;0.20;;;28.50;52.90;;;29.01;38.43;94733.28;5077715;28;20218;-20
2023/09/12 02:49:32;;;;;;;0.20;0.20;;;28.50;52.70;;;29.01;38.60;94730.59;5077548;28;20298;-20
2023/09/12 02:51:59;;;;;;;0.30;0.30;;;28.50;52.80;;;29.01;39.00;94730.59;5078398;28;20215;-22
2023/09/12 02:54:27;;;;;;;0.30;0.30;;;28.50;52.90;;;28.98;38.41;94725.03;5078995;28;20185;-20
2023/09/12 02:56:54;;;;;;;0.20;0.20;;;28.50;53.00;;;28.99;38.64;94723.91;5077264;28;20348;-21
2023/09/12 02:59:21;;;;;;;0.28;0.28;;;28.50;52.90;;;28.96;38.91;94725.34;5077351;28;20206;-20
2023/09/12 03:01:48;;;;;;;0.30;0.30;;;28.50;52.90;;;28.94;39.01;94730.25;5078273;28;20276;-19
2023/09/12 03:04:16;;;;;;;0.20;0.20;;;28.40;52.80;;;28.92;38.86;94729.78;5078240;28;20541;-20
2023/09/12 03:06:44;;;;;;;0.30;0.30;;;28.50;52.90;;;28.90;38.54;94730.09;5078618;28;20209;-22
2023/09/12 03:09:11;;;;;;;0.30;0.30;;;28.50;53.00;;;28.90;38.77;94729.31;5060768;28;20215;-20
2023/09/12 03:11:39;;;;;;;0.28;0.28;;;28.50;53.00;;;28.88;39.26;94718.81;5076960;28;20289;-20
2023/09/12 03:14:07;;;;;;;0.35;0.35;;;28.50;52.90;;;28.88;38.57;94726.94;5077044;28;20233;-21
2023/09/12 03:16:36;;;;;;;0.30;0.30;;;28.50;52.90;;;28.88;38.59;94726.09;5078740;28;20305;-20
2023/09/12 03:19:03;;;;;;;0.30;0.30;;;28.40;53.20;;;28.86;38.45;94729.13;5076999;28;20204;-21
2023/09/12 03:21:31;;;;;;;0.35;0.35;;;28.40;52.80;;;28.86;39.09;94736.44;5076972;28;20279;-20
2023/09/12 03:23:58;;;;;;;0.30;0.30;;;28.40;52.80;;;28.85;39.05;94724.06;5076905;28;20210;-20
2023/09/12 03:26:25;;;;;;;0.30;0.30;;;28.40;52.90;;;28.86;38.75;94723.72;5078325;28;20219;-19
2023/09/12 03:28:52;;;;;;;0.30;0.30;;;28.40;52.90;;;28.86;38.45;94731.06;5094311;28;20202;-20
2023/09/12 03:31:20;;;;;;;0.28;0.28;;;28.40;52.90;;;28.84;39.13;94725.94;5077040;28;20212;-19
2023/09/12 03:33:49;;;;;;;0.35;0.35;;;28.40;53.00;;;28.86;38.50;94731.06;5076640;28;20223;-20
2023/09/12 03:36:18;;;;;;;0.30;0.30;;;28.30;52.90;;;28.84;38.62;94725.94;5078034;28;20169;-20
2023/09/12 03:38:46;;;;;;;0.30;0.30;;;28.40;53.00;;;28.83;39.11;94720.88;5077162;28;20570;-20
2023/09/12 03:41:13;;;;;;;0.20;0.20;;;28.30;54.20;;;28.79;38.78;94722.59;5076620;28;20204;-20
2023/09/12 03:43:41;;;;;;;0.30;0.30;;;28.30;52.90;;;28.78;38.70;94727.19;5093400;28;20204;-19
2023/09/12 03:46:08;;;;;;;0.30;0.30;;;28.30;53.00;;;28.76;39.26;94724.03;5076503;28;20265;-21
2023/09/12 03:48:36;;;;;;;0.30;0.30;;;28.30;52.90;;;28.76;38.72;94721.34;5075521;28;20204;-19
2023/09/12 03:51:04;;;;;;;0.22;0.22;;;28.30;52.80;;;28.77;38.59;94719.41;5076428;28;20226;-24
2023/09/12 03:53:31;;;;;;;0.30;0.30;;;28.30;52.90;;;28.77;38.57;94716.72;5076311;28;20230;-22
2023/09/12 03:55:59;;;;;;;0.20;0.20;;;28.30;53.00;;;28.75;38.76;94723.22;5076985;28;20221;-19
2023/09/12 03:58:27;;;;;;;0.20;0.20;;;28.30;53.00;;;28.74;39.07;94727.03;5060488;28;20210;-19
2023/09/12 04:00:54;;;;;;;0.20;0.20;;;28.30;53.00;;;28.72;38.77;94718.47;5076957;28;20228;-21
2023/09/12 04:03:22;;;;;;;0.30;0.30;;;28.30;53.00;;;28.70;38.70;94717.97;5076219;28;20203;-20
2023/09/12 04:05:51;;;;;;;0.30;0.30;;;28.30;53.10;;;28.70;38.91;94723.38;5076149;28;20228;-20
2023/09/12 04:08:18;;;;;;;0.32;0.32;;;28.20;53.10;;;28.69;38.98;94715.59;5076077;28;20236;-20
2023/09/12 04:10:45;;;;;;;0.30;0.30;;;28.20;53.00;;;28.65;38.78;94712.69;5092926;28;20201;-20
2023/09/12 04:13:12;;;;;;;0.30;0.30;;;28.20;53.10;;;28.66;39.07;94716.16;5092662;28;20331;-20
2023/09/12 04:15:39;;;;;;;0.30;0.30;;;28.20;53.10;;;28.67;38.72;94717.75;5077457;28;20673;-19
2023/09/12 04:18:06;;;;;;;0.30;0.30;;;28.20;53.00;;;28.66;38.75;94714.28;5075822;28;20203;-21
2023/09/12 04:20:34;;;;;;;0.38;0.38;;;28.20;53.00;;;28.64;38.64;94711.09;5075850;28;20207;-22
2023/09/12 04:23:02;;;;;;;0.25;0.25;;;28.20;53.00;;;28.64;39.38;94711.09;5075820;28;20218;-20
2023/09/12 04:25:31;;;;;;;0.28;0.28;;;28.20;53.10;;;28.65;38.90;94714.56;5075976;28;20540;-19
2023/09/12 04:27:58;;;;;;;0.30;0.30;;;28.10;53.00;;;28.63;39.37;94714.13;5076648;28;20194;-19
2023/09/12 04:30:25;;;;;;;0.22;0.22;;;28.10;53.10;;;28.58;39.28;94710.44;5075878;28;20214;-20
2023/09/12 04:32:53;;;;;;;0.30;0.30;;;28.20;53.10;;;28.58;38.89;94707.72;5075527;28;20220;-20
2023/09/12 04:35:22;;;;;;;0.20;0.20;;;28.20;53.20;;;28.58;39.01;94710.44;5092479;28;20195;-20
2023/09/12 04:37:49;;;;;;;0.30;0.30;;;28.20;53.20;;;28.58;39.12;94712.34;5075428;28;20222;-23
2023/09/12 04:40:16;;;;;;;0.30;0.30;;;28.10;53.20;;;28.55;39.19;94710.25;5075471;28;20597;-20
2023/09/12 04:42:43;;;;;;;0.30;0.30;;;28.10;53.20;;;28.56;39.10;94711.84;5076366;28;20599;-20
2023/09/12 04:45:11;;;;;;;0.30;0.30;;;28.10;53.10;;;28.54;39.00;94708.66;5092792;28;20205;-20
2023/09/12 04:47:38;;;;;;;0.30;0.30;;;28.10;53.30;;;28.53;38.99;94712.50;5075327;28;20526;-22
2023/09/12 04:50:06;;;;;;;0.30;0.30;;;28.10;53.10;;;28.52;38.91;94717.06;5075488;28;20203;-19
2023/09/12 04:52:33;;;;;;;0.30;0.30;;;28.10;53.10;;;28.52;39.26;94718.97;5075163;28;20223;-20
2023/09/12 04:55:01;;;;;;;0.30;0.30;;;28.10;53.30;;;28.52;38.89;94711.69;5092082;28;20253;-20
2023/09/12 04:57:30;;;;;;;0.30;0.30;;;28.10;53.20;;;28.51;39.21;94725.47;5075001;28;20643;-20
2023/09/12 04:59:58;;;;;;;0.30;0.30;;;28.10;52.90;;;28.45;38.72;94719.41;5058940;28;20281;-19
2023/09/12 05:02:25;;;;;;;0.30;0.30;;;28.10;52.90;;;28.41;38.73;94715.75;5076008;28;20191;-19
2023/09/12 05:04:53;;;;;;;0.30;0.30;;;28.10;53.00;;;28.37;38.89;94715.59;5058542;28;20285;-20
2023/09/12 05:07:22;;;;;;;0.20;0.20;;;28.00;53.10;;;28.39;38.97;94723.34;5074743;28;20203;-19
2023/09/12 05:09:49;;;;;;;0.30;0.30;;;28.00;53.30;;;28.36;39.11;94718.59;5075137;28;20207;-20
2023/09/12 05:12:17;;;;;;;0.30;0.30;;;28.00;53.40;;;28.37;39.26;94726.38;5074596;28;20306;-20
2023/09/12 05:14:44;;;;;;;0.35;0.35;;;28.00;53.40;;;28.36;39.51;94719.38;5075757;28;20266;-21
2023/09/12 05:17:11;;;;;;;0.30;0.30;;;28.00;53.50;;;28.36;39.41;94722.06;5074862;28;20627;-19
2023/09/12 05:19:38;;;;;;;0.30;0.30;;;27.90;53.40;;;28.36;39.57;94719.38;5075819;28;20188;-20
2023/09/12 05:22:05;;;;;;;0.30;0.30;;;28.00;53.60;;;28.35;39.11;94725.09;5074809;28;20193;-20
2023/09/12 05:24:33;;;;;;;0.30;0.30;;;27.90;53.50;;;28.37;39.73;94733.66;5074679;28;20215;-20
2023/09/12 05:27:00;;;;;;;0.30;0.30;;;27.90;53.50;;;28.36;39.45;94740.19;5091435;28;20237;-19
2023/09/12 05:29:27;;;;;;;0.30;0.30;;;28.00;53.60;;;28.38;39.26;94732.56;5075360;28;20187;-19
2023/09/12 05:31:54;;;;;;;0.30;0.30;;;27.90;53.60;;;28.36;39.36;94738.25;5074488;28;20210;-20
2023/09/12 05:34:21;;;;;;;0.30;0.30;;;28.00;53.70;;;28.36;39.34;94734.78;5075372;28;20219;-20
2023/09/12 05:36:48;;;;;;;0.30;0.30;;;27.90;53.60;;;28.35;39.92;94733.97;5074435;28;20601;-20
2023/09/12 05:39:15;;;;;;;0.30;0.30;;;28.00;53.70;;;28.35;39.68;94733.19;5075416;28;20224;-20
2023/09/12 05:41:43;;;;;;;0.30;0.30;;;28.00;53.70;;;28.35;39.79;94738.59;5091331;28;20200;-19
2023/09/12 05:44:12;;;;;;;0.30;0.30;;;28.00;53.70;;;28.35;39.40;94736.66;5074308;28;20552;-20
2023/09/12 05:46:39;;;;;;;0.30;0.30;;;28.00;53.70;;;28.35;39.40;94733.19;5074282;28;20213;-20
2023/09/12 05:49:07;;;;;;;0.30;0.30;;;28.00;53.70;;;28.35;39.47;94741.28;5075886;28;20200;-20
2023/09/12 05:51:34;;;;;;;0.30;0.30;;;28.00;53.70;;;28.34;39.49;94750.47;5074445;28;20203;-21
2023/09/12 05:54:01;;;;;;;0.20;0.20;;;28.00;53.80;;;28.37;39.88;94752.53;5074085;28;20246;-20
2023/09/12 05:56:29;;;;;;;0.20;0.20;;;28.00;53.70;;;28.35;39.64;94752.06;5074959;28;20209;-20
2023/09/12 05:58:56;;;;;;;0.30;0.30;;;28.00;53.70;;;28.36;39.61;94757.16;5074945;28;20252;-20
2023/09/12 06:01:23;;;;;;;0.20;0.20;;;28.00;53.70;;;28.38;39.76;94754.13;5074063;28;20195;-21
2023/09/12 06:03:50;;;;;;;0.30;0.30;;;28.00;53.70;;;28.37;39.94;94750.66;5074289;28;20212;-21
2023/09/12 06:06:17;;;;;;;0.28;0.28;;;28.00;54.90;;;28.38;39.96;94754.94;5075370;28;20637;-20
2023/09/12 06:08:44;;;;;;;0.30;0.30;;;28.00;53.80;;;28.37;39.69;94745.25;5074904;28;20259;-20
2023/09/12 06:11:11;;;;;;;0.30;0.30;;;28.00;53.80;;;28.37;39.88;94756.03;5074527;28;20198;-21
2023/09/12 06:13:38;;;;;;;0.30;0.30;;;28.00;53.90;;;28.40;40.01;94754.63;5074743;28;20240;-20
2023/09/12 06:16:06;;;;;;;0.30;0.30;;;28.00;53.90;;;28.38;40.10;94751.44;5074913;28;20262;-20
2023/09/12 06:18:34;;;;;;;0.30;0.30;;;28.00;53.90;;;28.38;39.52;94754.94;5074997;28;20278;-20
2023/09/12 06:21:04;;;;;;;0.25;0.25;;;28.00;53.90;;;28.39;40.13;94751.16;5074863;28;20199;-20
2023/09/12 06:23:31;;;;;;;0.30;0.30;;;28.00;54.00;;;28.39;40.23;94758.44;5075089;28;20210;-20
2023/09/12 06:25:58;;;;;;;0.30;0.30;;;28.00;54.00;;;28.38;40.27;94751.44;5075357;28;20521;-20
2023/09/12 06:28:27;;;;;;;0.20;0.20;;;28.10;54.10;;;28.39;39.74;94753.03;5074708;28;20216;-20
2023/09/12 06:30:54;;;;;;;0.30;0.30;;;28.10;54.20;;;28.42;40.26;94753.22;5074764;28;20201;-21
2023/09/12 06:33:22;;;;;;;0.30;0.30;;;28.10;54.20;;;28.41;39.72;94754.31;5074666;28;20226;-20
2023/09/12 06:35:50;;;;;;;0.30;0.30;;;28.00;54.10;;;28.40;39.89;94751.94;5074690;28;20193;-20
2023/09/12 06:38:17;;;;;;;0.28;0.28;;;28.10;54.20;;;28.42;39.91;94755.91;5073781;28;20286;-21
2023/09/12 06:40:44;;;;;;;0.30;0.30;;;28.10;54.30;;;28.43;40.43;94760.19;5075212;28;20193;-20
2023/09/12 06:43:11;;;;;;;0.20;0.20;;;28.10;54.40;;;28.42;40.53;94752.44;5074893;28;20322;-21
2023/09/12 06:45:38;;;;;;;0.30;0.30;;;28.10;54.30;;;28.45;40.15;94759.88;5074624;28;20198;-20
2023/09/12 06:48:06;;;;;;;0.30;0.30;;;28.10;54.40;;;28.43;40.13;94757.50;5074951;28;20196;-20
2023/09/12 06:50:33;;;;;;;0.30;0.30;;;28.10;54.40;;;28.47;40.04;94765.00;5073780;28;20211;-20
2023/09/12 06:53:01;;;;;;;0.30;0.30;;;28.10;54.50;;;28.46;40.51;94766.88;5074486;28;20198;-20
2023/09/12 06:55:28;;;;;;;0.30;0.30;;;28.10;54.40;;;28.45;40.67;94762.59;5073673;28;20209;-19
2023/09/12 06:57:55;;;;;;;0.28;0.28;;;28.10;54.50;;;28.47;40.07;94762.28;5074509;28;20261;-20
2023/09/12 07:00:24;;;;;;;0.30;0.30;;;28.10;54.50;;;28.47;40.45;94757.69;5074512;28;20241;-22
2023/09/12 07:02:51;;;;;;;0.30;0.30;;;28.10;54.60;;;28.48;40.48;94766.56;5074410;28;20628;-20
2023/09/12 07:05:18;;;;;;;0.30;0.30;;;28.10;54.50;;;28.49;40.32;94770.84;5074431;28;20206;-20
2023/09/12 07:07:46;;;;;;;0.35;0.35;;;28.10;54.60;;;28.50;40.11;94765.13;5074635;28;20189;-21
2023/09/12 07:10:13;;;;;;;0.30;0.30;;;28.10;54.70;;;28.49;40.75;94762.75;5073508;28;20210;-20
2023/09/12 07:12:53;;;;;;;0.30;0.30;;;28.20;54.70;;;28.52;40.68;94767.56;5074506;28;20230;-20
2023/09/12 07:15:21;;;;;;;0.30;0.30;;;28.10;55.90;;;28.50;41.07;94764.34;5074639;28;20244;-20
2023/09/12 07:17:48;;;;;;;0.30;0.30;;;28.20;54.80;;;28.52;40.51;94776.44;5074575;28;20214;-20
2023/09/12 07:20:17;;;;;;;0.20;0.20;;;28.20;54.80;;;28.54;40.95;94776.94;5073405;28;20195;-20
2023/09/12 07:22:44;;;;;;;0.20;0.20;;;28.20;54.80;;;28.55;40.86;94769.63;5075749;28;20185;-19
2023/09/12 07:25:16;;;;;;;0.30;0.30;;;28.20;54.80;;;28.56;40.47;94773.91;5077816;28;20647;-19
2023/09/12 07:27:43;;;;;;;0.30;0.30;;;28.20;54.80;;;28.57;40.99;94778.19;5077873;28;20223;-20
2023/09/12 07:30:10;;;;;;;0.20;0.20;;;28.20;54.80;;;28.57;40.83;94770.09;5078213;28;20200;-20
2023/09/12 07:32:39;;;;;;;0.30;0.30;;;28.20;54.80;;;28.59;40.67;94773.31;5077698;28;20233;-20
2023/09/12 07:35:06;;;;;;;0.20;0.20;;;28.20;54.90;;;28.61;40.89;94776.47;5077621;28;20298;-20
2023/09/12 07:37:33;;;;;;;0.30;0.30;;;28.20;54.90;;;28.62;41.08;94777.28;5077816;28;20312;-20
2023/09/12 07:40:01;;;;;;;0.25;0.25;;;28.20;54.90;;;28.62;40.88;94777.28;5077775;28;20527;-19
2023/09/12 07:42:28;;;;;;;0.30;0.30;;;28.20;55.00;;;28.62;41.04;94788.84;5077799;28;20227;-20
2023/09/12 07:44:55;;;;;;;0.20;0.20;;;28.20;54.90;;;28.62;41.11;94775.38;5077771;28;20192;-20
2023/09/12 07:47:22;;;;;;;0.30;0.30;;;28.20;55.00;;;28.64;40.66;94783.97;5077779;28;20194;-20
2023/09/12 07:49:55;;;;;;;0.20;0.20;;;28.20;55.00;;;28.64;41.13;94775.88;5077393;28;20206;-20
2023/09/12 07:52:22;;;;;;;0.30;0.30;;;28.20;55.10;;;28.67;41.04;94777.13;5076781;28;20248;-20
2023/09/12 07:54:52;;;;;;;0.20;0.20;;;28.20;55.10;;;28.68;40.54;94778.72;5077581;28;20211;-20
2023/09/12 07:57:19;;;;;;;0.30;0.30;;;28.30;55.20;;;28.66;40.95;94781.75;5077313;28;20236;-20
2023/09/12 07:59:47;;;;;;;0.30;0.30;;;28.30;55.10;;;28.67;40.71;94775.22;5077150;28;20190;-21
2023/09/12 08:02:14;;;;;;;0.25;0.25;;;28.30;55.10;;;28.69;41.00;94777.66;5077213;28;20657;-21
2023/09/12 08:04:41;;;;;;;0.20;0.20;;;28.30;55.10;;;28.70;41.17;94777.34;5077423;28;20195;-20
2023/09/12 08:07:08;;;;;;;0.30;0.30;;;28.30;55.30;;;28.72;40.68;94774.31;5077137;28;20250;-20
2023/09/12 08:09:50;;;;;;;0.30;0.30;;;28.30;55.20;;;28.72;41.31;94771.63;5077272;28;20528;-21
2023/09/12 08:12:18;;;;;;;0.30;0.30;;;28.30;55.10;;;28.74;40.89;94767.50;5077299;28;20240;-20
2023/09/12 08:14:46;;;;;;;0.20;0.20;;;28.40;55.20;;;28.74;40.78;94772.13;5076909;28;20211;-21
2023/09/12 08:17:14;;;;;;;0.20;0.20;;;28.40;55.30;;;28.79;41.03;94771.19;5076865;28;20657;-21
2023/09/12 08:19:42;;;;;;;0.20;0.20;;;28.30;55.10;;;28.78;40.74;94778.47;5077144;28;20196;-19
2023/09/12 08:22:10;;;;;;;0.30;0.30;;;28.30;55.20;;;28.79;40.77;94777.38;5059331;28;20205;-20
2023/09/12 08:24:38;;;;;;;0.30;0.30;;;28.40;56.50;;;28.81;40.56;94768.97;5076802;28;20232;-20
2023/09/12 08:27:07;;;;;;;0.20;0.20;;;28.40;55.20;;;28.82;41.32;94773.25;5076031;28;20213;-21
2023/09/12 08:29:34;;;;;;;0.30;0.30;;;28.40;55.30;;;28.84;40.63;94763.72;5077120;28;20199;-20
2023/09/12 08:32:02;;;;;;;0.38;0.38;;;28.40;55.30;;;28.85;41.13;94767.25;5076044;28;20195;-21
2023/09/12 08:34:29;;;;;;;0.28;0.28;;;28.40;55.30;;;28.85;40.71;94762.63;5076310;28;20651;-20
2023/09/12 08:36:56;;;;;;;0.30;0.30;;;28.50;55.30;;;28.87;41.21;94762.34;5076046;28;20225;-20
2023/09/12 08:39:26;;;;;;;0.20;0.20;;;28.50;55.30;;;28.90;40.64;94767.88;5077288;28;20240;-21
2023/09/12 08:41:54;;;;;;;0.30;0.30;;;28.50;55.40;;;28.89;40.87;94769.00;5077036;28;20566;-40
2023/09/12 08:44:22;;;;;;;0.20;0.20;;;28.40;55.30;;;28.92;41.22;94767.59;5076602;28;20289;-23
2023/09/12 08:46:49;;;;;;;0.20;0.20;;;28.50;55.40;;;28.93;40.66;94766.50;5076567;28;20194;-23
2023/09/12 08:49:17;;;;;;;0.35;0.35;;;28.50;55.30;;;28.93;41.16;94766.50;5076627;28;20559;-23
2023/09/12 08:51:44;;;;;;;0.30;0.30;;;28.50;55.30;;;28.96;40.76;94765.06;5076864;28;20196;-24
2023/09/12 08:54:12;;;;;;;0.30;0.30;;;28.50;55.30;;;28.97;40.73;94769.34;5076533;28;20228;-24
2023/09/12 08:56:42;;;;;;;0.38;0.38;;;28.50;55.40;;;28.99;41.26;94776.03;5076140;28;20264;-32
2023/09/12 08:59:10;;;;;;;0.30;0.30;;;28.50;55.40;;;28.99;41.15;94765.22;5076656;28;20199;-23
2023/09/12 09:01:38;;;;;;;0.25;0.25;;;28.60;55.50;;;29.02;40.76;94766.50;5076939;28;20189;-22
2023/09/12 09:04:06;;;;;;;0.30;0.30;;;28.60;55.40;;;29.03;41.25;94770.81;5075587;28;20194;-22
2023/09/12 09:06:37;;;;;;;0.20;0.20;;;28.60;55.40;;;29.03;40.92;94768.09;5076589;28;20201;-23
2023/09/12 09:09:07;;;;;;;0.20;0.20;;;28.60;55.40;;;29.06;41.37;94770.16;5075459;28;20197;-23
2023/09/12 09:11:34;;;;;;;0.28;0.28;;;28.60;55.50;;;29.06;41.38;94765.56;5075943;28;20254;-23
2023/09/12 09:14:03;;;;;;;0.30;0.30;;;28.60;55.50;;;29.09;40.90;94758.75;5075260;28;20275;-24
2023/09/12 09:16:31;;;;;;;0.20;0.20;;;28.70;55.70;;;29.12;41.30;94751.91;5076343;28;20291;-23
2023/09/12 09:19:09;;;;;;;0.20;0.20;;;28.70;55.60;;;29.12;41.46;94743.81;5075636;28;20190;-29
2023/09/12 09:21:40;;;;;;;0.20;0.20;;;28.70;55.70;;;29.12;41.31;94758.09;5075833;28;20187;-22
2023/09/12 09:24:10;;;;;;;0.30;0.30;;;28.70;55.60;;;29.16;40.85;94759.09;5076416;28;20198;-24
2023/09/12 09:26:49;;;;;;;0.20;0.20;;;28.70;55.60;;;29.17;41.17;94757.16;5075934;28;20187;-23
2023/09/12 09:29:21;;;;;;;0.30;0.30;;;28.70;55.60;;;29.18;41.46;94759.53;5075928;28;20263;-23
2023/09/12 09:31:50;;;;;;;0.40;0.40;;;28.80;55.70;;;29.20;41.14;94759.25;5075539;28;20194;-23
2023/09/12 09:34:21;;;;;;;0.30;0.30;;;28.70;55.60;;;29.20;41.02;94751.16;5075757;28;20230;-23
2023/09/12 09:36:53;;;;;;;0.30;0.30;;;28.70;55.60;;;29.24;40.89;94757.50;5075372;28;20259;-23
2023/09/12 09:39:25;;;;;;;0.30;0.30;;;28.80;55.60;;;29.23;41.58;94756.72;5075552;28;20182;-23
2023/09/12 09:41:55;;;;;;;0.20;0.20;;;28.80;55.60;;;29.26;41.45;94751.78;5074462;28;20637;-22
2023/09/12 09:44:28;;;;;;;0.20;0.20;;;28.80;55.70;;;29.28;40.85;94749.56;5074999;28;20249;-22
2023/09/12 09:47:02;;;;;;;0.30;0.30;;;28.80;55.60;;;29.29;40.99;94751.94;5075252;28;20183;-23
2023/09/12 09:49:34;;;;;;;0.30;0.30;;;28.80;55.60;;;29.32;40.93;94755.94;5075150;28;20529;-23
2023/09/12 09:52:04;;;;;;;0.20;0.20;;;28.80;55.50;;;29.31;40.68;94749.75;5075194;28;20280;-23
2023/09/12 09:54:32;;;;;;;0.30;0.30;;;28.80;55.60;;;29.34;41.21;94749.13;5075429;28;20200;-24
2023/09/12 09:56:59;;;;;;;0.22;0.22;;;28.80;55.60;;;29.36;41.25;94752.31;5075909;28;20242;-24
2023/09/12 09:59:27;;;;;;;0.30;0.30;;;28.90;55.60;;;29.37;41.54;94740.41;5074950;28;20244;-23
2023/09/12 10:02:00;;;;;;;0.30;0.30;;;28.90;55.70;;;29.42;41.38;94741.34;5075070;28;20195;-23
2023/09/12 10:04:28;;;;;;;0.40;0.40;;;28.90;55.60;;;29.42;40.80;94742.16;5074926;28;20669;-23
2023/09/12 10:06:58;;;;;;;0.30;0.30;;;28.90;55.60;;;29.44;41.29;94734.50;5075025;28;20193;-23
2023/09/12 10:09:27;;;;;;;0.22;0.22;;;28.90;55.50;;;29.46;41.27;94729.59;5074889;28;20198;-23
2023/09/12 10:11:56;;;;;;;0.20;0.20;;;29.00;55.50;;;29.46;41.22;94726.09;5074777;28;20673;-23
2023/09/12 10:14:27;;;;;;;0.30;0.30;;;29.00;55.50;;;29.47;40.64;94731.19;5074285;28;20267;-23
2023/09/12 10:17:01;;;;;;;0.20;0.20;;;29.00;55.50;;;29.51;40.60;94731.34;5074050;28;20191;-23
2023/09/12 10:19:59;;;;;;;0.20;0.20;;;29.00;55.40;;;29.52;40.77;94731.03;5074943;28;20174;-23
2023/09/12 10:22:38;;;;;;;0.20;0.20;;;29.10;55.40;;;29.52;40.78;94730.25;5074192;28;20558;-23
2023/09/12 10:25:07;;;;;;;0.20;0.20;;;29.10;55.40;;;29.55;40.59;94726.88;5074299;28;20204;-23
2023/09/12 10:27:34;;;;;;;0.30;0.30;;;29.10;55.20;;;29.57;40.44;94727.38;5075430;28;20605;-23